Time;durP1;ratioP1;P1;durP2;ratioP2;P2;SDS_P1;SDS_P2;PMS_P1;PMS_P2;Temp;Humidity;BMP_temperature;BMP_pressure;BME280_temperature;BME280_humidity;BME280_pressure;Samples;Min_cycle;Max_cycle;Signal;HPM_P1;HPM_P2
2023/09/18 00:00:52;;;;;;;11.80;5.82;;;18.20;99.90;;;;;;4996643;28;20033;-85
2023/09/18 00:03:20;;;;;;;7.63;5.88;;;18.30;99.90;;;;;;5027183;28;20034;-85
2023/09/18 00:05:50;;;;;;;11.23;5.57;;;18.30;99.90;;;;;;5000211;28;20117;-85
2023/09/18 00:08:17;;;;;;;9.73;6.32;;;18.30;99.90;;;;;;5015501;28;20062;-85
2023/09/18 00:10:46;;;;;;;6.78;5.78;;;18.40;99.90;;;;;;5012228;28;20060;-86
2023/09/18 00:13:13;;;;;;;9.00;5.32;;;18.50;99.90;;;;;;5028277;28;20033;-86
2023/09/18 00:15:40;;;;;;;9.07;5.93;;;18.60;99.90;;;;;;5006271;28;20030;-86
2023/09/18 00:18:07;;;;;;;6.82;5.57;;;18.60;99.90;;;;;;5012161;28;20030;-86
2023/09/18 00:20:33;;;;;;;7.93;5.88;;;18.40;99.90;;;;;;5001490;28;20502;-86
2023/09/18 00:22:59;;;;;;;6.38;5.43;;;18.30;99.90;;;;;;5005912;28;20057;-86
2023/09/18 00:25:24;;;;;;;7.85;5.80;;;18.30;99.90;;;;;;5026238;28;20112;-85
2023/09/18 00:27:51;;;;;;;6.82;5.28;;;18.20;99.90;;;;;;4993408;28;20045;-85
2023/09/18 00:30:17;;;;;;;11.45;5.47;;;18.30;99.90;;;;;;5011315;28;20292;-85
2023/09/18 00:32:43;;;;;;;6.75;5.22;;;18.30;99.90;;;;;;4994919;28;20034;-86
2023/09/18 00:35:09;;;;;;;12.75;6.03;;;18.20;99.90;;;;;;5028858;28;20041;-85
2023/09/18 00:37:36;;;;;;;9.88;5.30;;;18.20;99.90;;;;;;5011310;28;20036;-85
2023/09/18 00:40:04;;;;;;;14.27;5.72;;;18.20;99.90;;;;;;5016989;28;20164;-85
2023/09/18 00:42:30;;;;;;;9.10;5.47;;;18.30;99.90;;;;;;5001355;28;20500;-86
2023/09/18 00:44:56;;;;;;;8.73;5.75;;;18.30;99.90;;;;;;5014819;28;20033;-85
2023/09/18 00:47:28;;;;;;;7.15;5.60;;;18.40;99.90;;;;;;5001082;28;20157;-85
2023/09/18 00:49:55;;;;;;;8.32;6.07;;;18.40;99.90;;;;;;5002254;28;20061;-86
2023/09/18 00:52:23;;;;;;;8.20;5.53;;;18.40;99.90;;;;;;5000309;28;20042;-87
2023/09/18 00:54:50;;;;;;;7.90;5.22;;;18.40;99.90;;;;;;4996706;28;20048;-85
2023/09/18 00:57:16;;;;;;;10.98;5.80;;;18.40;99.90;;;;;;5000441;28;20042;-86
2023/09/18 00:59:42;;;;;;;9.00;5.50;;;18.30;99.90;;;;;;5020958;28;20026;-85
2023/09/18 01:02:20;;;;;;;9.70;5.68;;;18.30;99.90;;;;;;4998822;28;20037;-85
2023/09/18 01:04:49;;;;;;;7.75;5.18;;;18.30;99.90;;;;;;5009715;28;20033;-85
2023/09/18 01:07:15;;;;;;;6.32;5.43;;;18.30;99.90;;;;;;5017595;28;20410;-86
2023/09/18 01:09:43;;;;;;;7.75;5.63;;;18.30;99.90;;;;;;5020397;28;20030;-85
2023/09/18 01:12:08;;;;;;;9.70;5.43;;;18.40;99.90;;;;;;4995545;28;20026;-86
2023/09/18 01:14:44;;;;;;;10.95;5.63;;;18.40;99.90;;;;;;5012299;28;20026;-86
2023/09/18 01:17:13;;;;;;;7.65;5.53;;;18.40;99.90;;;;;;4994915;28;20034;-85
2023/09/18 01:19:47;;;;;;;8.45;5.15;;;18.40;99.90;;;;;;5013478;28;20437;-85
2023/09/18 01:22:19;;;;;;;6.68;5.22;;;18.30;99.90;;;;;;5016922;28;20484;-84
2023/09/18 01:24:49;;;;;;;11.98;5.22;;;18.40;99.90;;;;;;5006841;28;20029;-86
2023/09/18 01:27:17;;;;;;;12.13;5.27;;;18.50;99.90;;;;;;5011669;28;20025;-86
2023/09/18 01:29:43;;;;;;;7.13;5.03;;;18.50;99.90;;;;;;4995027;28;20018;-85
2023/09/18 01:32:09;;;;;;;8.18;5.40;;;18.60;99.90;;;;;;5027113;28;20022;-87
2023/09/18 01:34:49;;;;;;;12.82;5.32;;;18.60;99.90;;;;;;4995572;28;20184;-86
2023/09/18 01:37:19;;;;;;;5.68;4.97;;;18.70;99.90;;;;;;4994950;28;20034;-85
2023/09/18 01:39:50;;;;;;;7.72;4.80;;;18.90;99.90;;;;;;4998742;28;20437;-85
2023/09/18 01:42:16;;;;;;;9.83;5.33;;;19.00;99.90;;;;;;4995789;28;20029;-85
2023/09/18 01:44:48;;;;;;;6.13;4.38;;;19.20;99.90;;;;;;5004441;28;20371;-85
2023/09/18 01:47:18;;;;;;;7.28;4.40;;;19.30;99.90;;;;;;4994383;28;20430;-85
2023/09/18 01:49:46;;;;;;;7.90;4.20;;;19.40;99.90;;;;;;4982527;28;20485;-86
2023/09/18 01:52:12;;;;;;;8.55;4.82;;;19.40;99.90;;;;;;4994274;28;20307;-86
2023/09/18 01:54:38;;;;;;;6.18;4.82;;;19.50;99.90;;;;;;4999136;28;20371;-85
2023/09/18 01:57:04;;;;;;;7.45;4.63;;;19.50;99.90;;;;;;4999149;28;20045;-85
2023/09/18 01:59:30;;;;;;;6.38;4.72;;;19.50;99.90;;;;;;5009205;28;20378;-85
2023/09/18 02:01:56;;;;;;;5.38;4.25;;;19.50;99.90;;;;;;4992278;28;20493;-85
2023/09/18 02:04:22;;;;;;;9.57;4.60;;;19.50;99.90;;;;;;5010593;28;20026;-85
2023/09/18 02:06:50;;;;;;;8.13;3.95;;;19.50;99.90;;;;;;4988542;28;20034;-85
2023/09/18 02:09:16;;;;;;;6.68;4.53;;;19.60;99.90;;;;;;5026620;28;20076;-86
2023/09/18 02:11:44;;;;;;;6.85;3.88;;;19.70;99.90;;;;;;5011322;28;20831;-86
2023/09/18 02:14:10;;;;;;;5.13;4.35;;;19.70;99.90;;;;;;5009522;28;20113;-85
2023/09/18 02:16:40;;;;;;;5.45;4.07;;;19.80;99.90;;;;;;5011531;28;20397;-85
2023/09/18 02:19:07;;;;;;;9.82;4.63;;;19.80;99.90;;;;;;4997804;28;20054;-85
2023/09/18 02:21:33;;;;;;;8.20;4.65;;;19.80;99.90;;;;;;4996246;28;20497;-85
2023/09/18 02:24:00;;;;;;;10.85;5.32;;;19.80;99.90;;;;;;5000665;28;20138;-85
2023/09/18 02:26:26;;;;;;;7.68;6.03;;;19.80;99.90;;;;;;4997180;28;20033;-85
2023/09/18 02:28:54;;;;;;;15.60;5.43;;;19.70;99.90;;;;;;5013285;28;20084;-85
2023/09/18 02:31:20;;;;;;;10.05;5.28;;;19.30;99.90;;;;;;5013021;28;20030;-86
2023/09/18 02:33:46;;;;;;;8.55;4.85;;;19.10;99.90;;;;;;5014171;28;20116;-85
2023/09/18 02:36:13;;;;;;;7.80;4.85;;;19.00;99.90;;;;;;5013169;28;20030;-85
2023/09/18 02:38:38;;;;;;;9.68;5.45;;;18.90;99.90;;;;;;4997318;28;20066;-85
2023/09/18 02:41:04;;;;;;;8.80;5.43;;;18.90;99.90;;;;;;4999339;28;20080;-85
2023/09/18 02:43:30;;;;;;;14.50;5.93;;;18.90;99.90;;;;;;4997006;28;20075;-85
2023/09/18 02:45:55;;;;;;;8.10;4.97;;;18.90;99.90;;;;;;5001745;28;20058;-85
2023/09/18 02:48:21;;;;;;;8.95;5.28;;;19.10;99.90;;;;;;4998710;28;20037;-85
2023/09/18 02:50:47;;;;;;;9.40;4.70;;;19.20;99.90;;;;;;5026458;28;20030;-85
2023/09/18 02:53:23;;;;;;;8.20;5.13;;;19.20;99.90;;;;;;4999658;28;20026;-86
2023/09/18 02:55:54;;;;;;;7.97;5.13;;;19.30;99.90;;;;;;5026688;28;20038;-86
2023/09/18 02:58:21;;;;;;;8.77;4.65;;;19.30;99.90;;;;;;4997103;28;20069;-86
2023/09/18 03:00:49;;;;;;;10.15;4.68;;;19.30;99.90;;;;;;5002227;28;20053;-85
2023/09/18 03:03:16;;;;;;;5.95;5.05;;;19.30;99.90;;;;;;4998486;28;20026;-85
2023/09/18 03:05:43;;;;;;;8.02;4.65;;;19.30;99.90;;;;;;4997019;28;20065;-85
2023/09/18 03:08:12;;;;;;;7.50;4.38;;;19.20;99.90;;;;;;5005797;28;20030;-85
2023/09/18 03:10:40;;;;;;;6.10;5.10;;;19.20;99.90;;;;;;4995455;28;20036;-85
2023/09/18 03:13:07;;;;;;;6.50;4.53;;;19.10;99.90;;;;;;5001278;28;20073;-85
2023/09/18 03:15:33;;;;;;;11.60;4.90;;;19.00;99.90;;;;;;5002042;28;20120;-86
2023/09/18 03:18:00;;;;;;;8.70;4.65;;;18.90;99.90;;;;;;4994509;28;20023;-85
2023/09/18 03:20:28;;;;;;;8.18;4.93;;;18.90;99.90;;;;;;5020203;28;20026;-85
2023/09/18 03:22:57;;;;;;;6.65;4.70;;;18.80;99.90;;;;;;5029464;28;20083;-86
2023/09/18 03:25:23;;;;;;;7.85;4.78;;;18.70;99.90;;;;;;5013746;28;20022;-85
2023/09/18 03:27:51;;;;;;;10.65;4.85;;;18.50;99.90;;;;;;5013460;28;20041;-85
2023/09/18 03:30:19;;;;;;;6.78;4.63;;;18.50;99.90;;;;;;5009091;28;20029;-86
2023/09/18 03:32:51;;;;;;;9.18;4.75;;;18.50;99.90;;;;;;5009440;28;20507;-85
2023/09/18 03:35:18;;;;;;;6.72;4.40;;;18.50;99.90;;;;;;5012683;28;20030;-85
2023/09/18 03:37:49;;;;;;;10.13;4.88;;;18.40;99.90;;;;;;4994268;28;20038;-85
2023/09/18 03:40:18;;;;;;;7.00;4.75;;;18.40;99.90;;;;;;4996952;28;20066;-85
2023/09/18 03:42:44;;;;;;;7.25;4.32;;;18.30;99.90;;;;;;5001584;28;20434;-85
2023/09/18 03:45:11;;;;;;;8.07;4.80;;;18.30;99.90;;;;;;4986908;28;20034;-85
2023/09/18 03:47:39;;;;;;;7.13;4.95;;;18.20;99.90;;;;;;5027945;28;20084;-85
2023/09/18 03:50:17;;;;;;;10.07;5.35;;;18.20;99.90;;;;;;4999148;28;20042;-86
2023/09/18 03:52:43;;;;;;;5.80;4.78;;;18.20;99.90;;;;;;5009617;28;20120;-85
2023/09/18 03:55:08;;;;;;;8.50;4.50;;;18.30;99.90;;;;;;5011956;28;20473;-85
2023/09/18 03:57:42;;;;;;;7.03;4.50;;;18.40;99.90;;;;;;4995507;28;20029;-86
2023/09/18 04:00:08;;;;;;;9.10;4.45;;;18.40;99.90;;;;;;5000057;28;20030;-85
2023/09/18 04:02:40;;;;;;;12.60;4.68;;;18.60;99.90;;;;;;4999647;28;20062;-85
2023/09/18 04:05:07;;;;;;;11.38;4.38;;;18.70;99.90;;;;;;5012627;28;20493;-86
2023/09/18 04:07:33;;;;;;;18.35;5.03;;;18.90;99.90;;;;;;5012056;28;20378;-85
2023/09/18 04:10:00;;;;;;;14.45;4.65;;;18.90;99.90;;;;;;4997419;28;20021;-86
2023/09/18 04:12:54;;;;;;;14.32;4.57;;;19.00;99.90;;;;;;5028350;28;20532;-86
2023/09/18 04:15:21;;;;;;;14.93;5.63;;;19.00;99.90;;;;;;5006333;28;20034;-84
2023/09/18 04:17:47;;;;;;;18.85;5.82;;;18.90;99.90;;;;;;5002730;28;20500;-85
2023/09/18 04:20:13;;;;;;;23.10;5.43;;;18.90;99.90;;;;;;4995502;28;20026;-85
2023/09/18 04:22:44;;;;;;;15.68;4.75;;;18.90;99.90;;;;;;5016526;28;20433;-86
2023/09/18 04:25:11;;;;;;;17.75;5.00;;;18.90;99.90;;;;;;4999811;28;20033;-86
2023/09/18 04:27:37;;;;;;;16.70;5.38;;;18.90;99.90;;;;;;5024821;28;20671;-84
2023/09/18 04:30:03;;;;;;;14.57;5.15;;;18.80;99.90;;;;;;5017391;28;20080;-85
2023/09/18 04:32:29;;;;;;;26.90;5.80;;;18.80;99.90;;;;;;4996215;28;20034;-87
2023/09/18 04:34:55;;;;;;;16.90;5.65;;;18.80;99.90;;;;;;5006494;28;20033;-86
2023/09/18 04:37:20;;;;;;;20.42;6.20;;;18.90;99.90;;;;;;4986690;28;20076;-85
2023/09/18 04:39:58;;;;;;;22.77;5.97;;;18.90;99.90;;;;;;4993721;28;20026;-85
2023/09/18 04:42:24;;;;;;;25.85;7.03;;;18.70;99.90;;;;;;4998928;28;20409;-85
2023/09/18 04:45:15;;;;;;;29.75;7.65;;;18.30;99.90;;;;;;5026127;28;20028;-86
2023/09/18 04:47:42;;;;;;;23.77;6.97;;;17.90;99.90;;;;;;5000484;28;20030;-87
2023/09/18 04:50:08;;;;;;;23.38;7.70;;;17.60;99.90;;;;;;4995030;28;20037;-87
2023/09/18 04:52:34;;;;;;;30.55;8.65;;;17.30;99.90;;;;;;5008092;28;20030;-87
2023/09/18 04:55:10;;;;;;;37.20;7.88;;;17.20;99.90;;;;;;5024446;28;20022;-88
2023/09/18 04:57:36;;;;;;;29.88;9.82;;;17.00;99.90;;;;;;4996101;28;20030;-89
2023/09/18 05:00:02;;;;;;;32.78;9.02;;;16.90;99.90;;;;;;5008935;28;20072;-88
2023/09/18 05:02:30;;;;;;;28.30;8.75;;;16.80;99.90;;;;;;5000149;28;20022;-88
2023/09/18 05:04:56;;;;;;;28.27;8.27;;;16.70;99.90;;;;;;5012759;28;20027;-88
2023/09/18 05:07:22;;;;;;;28.73;8.07;;;16.60;99.90;;;;;;5022249;28;20106;-87
2023/09/18 05:09:47;;;;;;;24.65;8.90;;;16.60;99.90;;;;;;5024116;28;20057;-87
2023/09/18 05:12:15;;;;;;;23.58;8.43;;;16.60;99.90;;;;;;4993737;28;20049;-86
2023/09/18 05:14:41;;;;;;;19.98;7.63;;;16.50;99.90;;;;;;4994741;28;20133;-86
2023/09/18 05:17:12;;;;;;;17.58;7.18;;;16.50;99.90;;;;;;5011296;28;20902;-86
2023/09/18 05:19:37;;;;;;;20.63;7.65;;;16.40;99.90;;;;;;5011106;28;20118;-87
2023/09/18 05:22:03;;;;;;;25.70;8.30;;;16.40;99.90;;;;;;5007748;28;20101;-86
2023/09/18 05:24:29;;;;;;;23.00;6.55;;;16.50;99.90;;;;;;5003582;28;20034;-87
2023/09/18 05:26:55;;;;;;;13.43;6.10;;;16.50;99.90;;;;;;4997230;28;20034;-87
2023/09/18 05:29:20;;;;;;;17.58;6.53;;;16.50;99.90;;;;;;5011312;28;20042;-87
2023/09/18 05:31:46;;;;;;;19.35;6.18;;;16.40;99.90;;;;;;4993857;28;20038;-86
2023/09/18 05:34:12;;;;;;;18.15;5.95;;;16.40;99.90;;;;;;5004180;28;20034;-86
2023/09/18 05:36:38;;;;;;;11.98;4.97;;;16.40;99.90;;;;;;4999629;28;20597;-86
2023/09/18 05:39:05;;;;;;;17.10;5.90;;;16.40;99.90;;;;;;5012103;28;20036;-87
2023/09/18 05:41:31;;;;;;;21.38;5.93;;;16.40;99.90;;;;;;5010190;28;20042;-86
2023/09/18 05:43:57;;;;;;;19.27;5.90;;;16.40;99.90;;;;;;4993203;28;20048;-86
2023/09/18 05:46:22;;;;;;;16.98;6.20;;;16.40;99.90;;;;;;5017659;28;20096;-87
2023/09/18 05:48:48;;;;;;;22.48;5.72;;;16.50;99.90;;;;;;5011756;28;20474;-87
2023/09/18 05:51:14;;;;;;;17.45;5.10;;;16.50;99.90;;;;;;5013560;28;20033;-87
2023/09/18 05:53:39;;;;;;;13.93;5.07;;;16.50;99.90;;;;;;5017297;28;20460;-87
2023/09/18 05:56:05;;;;;;;14.82;5.45;;;16.50;99.90;;;;;;5025576;28;20041;-87
2023/09/18 05:58:32;;;;;;;20.55;6.18;;;16.50;99.90;;;;;;5030002;28;20022;-87
2023/09/18 06:01:00;;;;;;;19.55;5.05;;;16.50;99.90;;;;;;5012892;28;20447;-87
2023/09/18 06:03:30;;;;;;;13.07;4.60;;;16.60;99.90;;;;;;5013627;28;20112;-86
2023/09/18 06:05:56;;;;;;;13.30;4.57;;;16.60;99.90;;;;;;5012866;28;20085;-86
2023/09/18 06:08:23;;;;;;;18.90;6.40;;;16.60;99.90;;;;;;5013335;28;20018;-87
2023/09/18 06:10:49;;;;;;;15.10;4.97;;;16.70;99.90;;;;;;5029048;28;20076;-87
2023/09/18 06:13:14;;;;;;;20.20;7.45;;;16.70;99.90;;;;;;5013377;28;20025;-86
2023/09/18 06:15:40;;;;;;;15.57;5.43;;;16.80;99.90;;;;;;5012966;28;20609;-87
2023/09/18 06:18:06;;;;;;;21.77;6.25;;;16.80;99.90;;;;;;5012137;28;20509;-86
2023/09/18 06:20:32;;;;;;;14.35;6.03;;;16.90;99.90;;;;;;5019529;28;20492;-86
2023/09/18 06:22:58;;;;;;;15.88;5.40;;;17.10;99.90;;;;;;5026919;28;20085;-87
2023/09/18 06:25:24;;;;;;;17.55;5.70;;;17.20;99.90;;;;;;4994917;28;20121;-87
2023/09/18 06:27:50;;;;;;;20.05;5.40;;;17.40;99.90;;;;;;5012428;28;20068;-86
2023/09/18 06:30:15;;;;;;;21.10;6.25;;;17.50;99.90;;;;;;5013229;28;20800;-87
2023/09/18 06:32:41;;;;;;;18.77;6.47;;;17.50;99.90;;;;;;5018615;28;20095;-87
2023/09/18 06:35:08;;;;;;;21.48;5.75;;;17.60;99.90;;;;;;5029535;28;20485;-87
2023/09/18 06:37:33;;;;;;;15.93;5.55;;;17.70;99.90;;;;;;5029694;28;20981;-87
2023/09/18 06:39:59;;;;;;;22.70;5.38;;;17.70;99.90;;;;;;5013682;28;20069;-87
2023/09/18 06:42:25;;;;;;;21.15;4.85;;;17.60;99.90;;;;;;5013240;28;21008;-87
2023/09/18 06:44:56;;;;;;;17.98;5.13;;;17.60;99.90;;;;;;5026465;28;20727;-87
2023/09/18 06:47:24;;;;;;;22.17;6.22;;;17.60;99.90;;;;;;5013203;28;20060;-87
2023/09/18 06:49:51;;;;;;;15.30;4.65;;;17.50;99.90;;;;;;5029136;28;20033;-88
2023/09/18 06:52:17;;;;;;;14.45;5.35;;;17.50;99.90;;;;;;5010979;28;20033;-87
2023/09/18 06:54:43;;;;;;;19.27;5.43;;;17.60;99.90;;;;;;5003905;28;20649;-87
2023/09/18 06:57:09;;;;;;;17.50;5.28;;;17.70;99.90;;;;;;5027867;28;20371;-87
2023/09/18 06:59:36;;;;;;;27.23;7.18;;;17.70;99.90;;;;;;4999131;28;20358;-87
2023/09/18 07:02:02;;;;;;;21.65;6.10;;;17.90;99.90;;;;;;4984724;28;20529;-87
2023/09/18 07:04:28;;;;;;;25.13;5.50;;;18.00;99.90;;;;;;4998271;28;20373;-87
2023/09/18 07:06:54;;;;;;;15.98;4.80;;;18.00;99.90;;;;;;5018765;28;20029;-87
2023/09/18 07:09:22;;;;;;;22.23;4.80;;;18.00;99.90;;;;;;5011989;28;20358;-87
2023/09/18 07:11:49;;;;;;;17.42;5.93;;;17.80;99.90;;;;;;5009590;28;20486;-87
2023/09/18 07:14:15;;;;;;;20.25;4.80;;;17.80;99.90;;;;;;4996288;28;20121;-87
2023/09/18 07:16:41;;;;;;;20.83;4.78;;;17.90;99.90;;;;;;5016881;28;20026;-87
2023/09/18 07:19:11;;;;;;;21.48;4.20;;;18.00;99.90;;;;;;5012027;28;20056;-86
2023/09/18 07:21:37;;;;;;;11.02;3.78;;;18.10;99.90;;;;;;5017564;28;20026;-87
2023/09/18 07:24:03;;;;;;;11.88;4.10;;;18.10;99.90;;;;;;5008743;28;20072;-86
2023/09/18 07:26:29;;;;;;;13.00;4.25;;;18.20;99.90;;;;;;5012176;28;20449;-87
2023/09/18 07:28:55;;;;;;;12.60;3.72;;;18.30;99.90;;;;;;5011868;28;20042;-86
2023/09/18 07:31:21;;;;;;;14.45;3.58;;;18.30;99.90;;;;;;5028697;28;20845;-85
2023/09/18 07:33:47;;;;;;;14.80;3.60;;;18.20;99.90;;;;;;5011992;28;20041;-85
2023/09/18 07:36:15;;;;;;;15.88;4.05;;;18.20;99.90;;;;;;5010919;28;20064;-85
2023/09/18 07:38:43;;;;;;;14.68;3.78;;;18.10;99.90;;;;;;5007898;28;20034;-85
2023/09/18 07:41:09;;;;;;;15.18;4.47;;;18.20;99.90;;;;;;5008157;28;20077;-83
2023/09/18 07:43:34;;;;;;;12.23;3.47;;;18.20;99.90;;;;;;5011572;28;20041;-84
2023/09/18 07:46:01;;;;;;;9.32;3.13;;;18.10;99.90;;;;;;5013269;28;20033;-84
2023/09/18 07:48:27;;;;;;;16.02;3.90;;;18.10;99.90;;;;;;5012257;28;20029;-84
2023/09/18 07:50:54;;;;;;;12.68;3.67;;;18.20;99.90;;;;;;5025040;28;20478;-83
2023/09/18 07:53:20;;;;;;;11.90;3.60;;;18.10;99.90;;;;;;5027379;28;20618;-84
2023/09/18 07:55:49;;;;;;;19.70;3.35;;;18.00;99.90;;;;;;5007686;28;20508;-84
2023/09/18 07:58:14;;;;;;;16.40;3.60;;;17.90;99.90;;;;;;5011117;28;20030;-84
2023/09/18 08:00:40;;;;;;;10.23;3.40;;;17.80;99.90;;;;;;5020618;28;20029;-84
2023/09/18 08:03:06;;;;;;;11.48;3.85;;;17.70;99.90;;;;;;5011443;28;20029;-83
2023/09/18 08:05:31;;;;;;;16.85;3.47;;;17.70;99.90;;;;;;5008304;28;20048;-84
2023/09/18 08:07:58;;;;;;;9.73;3.58;;;17.60;99.90;;;;;;4987933;28;20113;-83
2023/09/18 08:10:25;;;;;;;9.52;3.78;;;17.50;99.90;;;;;;5007083;28;20037;-84
2023/09/18 08:12:53;;;;;;;9.63;3.45;;;17.40;99.90;;;;;;4996099;28;20404;-84
2023/09/18 08:15:22;;;;;;;12.10;4.07;;;17.40;99.90;;;;;;5000909;28;20045;-83
2023/09/18 08:17:52;;;;;;;16.33;4.18;;;17.30;99.90;;;;;;5003297;28;20049;-85
2023/09/18 08:20:18;;;;;;;14.57;3.63;;;17.30;99.90;;;;;;5007498;28;20042;-84
2023/09/18 08:22:44;;;;;;;9.43;3.17;;;17.30;99.90;;;;;;4996944;28;20502;-84
2023/09/18 08:25:10;;;;;;;16.65;3.40;;;17.40;99.90;;;;;;5007361;28;20043;-84
2023/09/18 08:27:47;;;;;;;10.40;2.78;;;17.50;99.90;;;;;;5014185;28;20496;-84
2023/09/18 08:30:14;;;;;;;8.07;3.20;;;17.50;99.90;;;;;;5023662;28;20044;-85
2023/09/18 08:32:40;;;;;;;14.43;3.00;;;17.50;99.90;;;;;;4994235;28;20080;-86
2023/09/18 08:35:06;;;;;;;8.63;3.13;;;17.50;99.90;;;;;;5019873;28;20033;-86
2023/09/18 08:37:32;;;;;;;7.50;3.45;;;17.60;99.90;;;;;;4999334;28;20480;-84
2023/09/18 08:40:00;;;;;;;13.18;3.38;;;17.70;99.90;;;;;;5009519;28;20038;-83
2023/09/18 08:42:30;;;;;;;10.63;2.80;;;17.70;99.90;;;;;;5010583;28;20030;-84
2023/09/18 08:44:58;;;;;;;8.23;2.90;;;17.60;99.90;;;;;;5004880;28;20038;-84
2023/09/18 08:47:25;;;;;;;7.38;2.65;;;17.60;99.90;;;;;;5024840;28;20088;-83
2023/09/18 08:49:53;;;;;;;8.80;2.67;;;17.40;99.90;;;;;;5010743;28;20116;-84
2023/09/18 08:52:19;;;;;;;11.18;3.15;;;17.40;99.90;;;;;;5012399;28;20053;-84
2023/09/18 08:54:46;;;;;;;11.77;3.00;;;17.50;99.90;;;;;;5021619;28;20037;-84
2023/09/18 08:57:12;;;;;;;11.88;3.78;;;17.40;99.90;;;;;;5016612;28;20045;-84
2023/09/18 08:59:40;;;;;;;11.05;2.72;;;17.50;99.90;;;;;;4999058;28;20406;-84
2023/09/18 09:02:11;;;;;;;13.43;3.35;;;17.60;99.90;;;;;;5026674;28;20079;-84
2023/09/18 09:04:38;;;;;;;10.23;2.60;;;17.70;99.90;;;;;;5010174;28;20140;-84
2023/09/18 09:07:04;;;;;;;9.40;2.80;;;17.80;99.90;;;;;;4996874;28;20049;-84
2023/09/18 09:09:30;;;;;;;12.82;2.53;;;17.80;99.90;;;;;;4997740;28;20165;-84
2023/09/18 09:11:56;;;;;;;13.98;2.90;;;17.80;99.90;;;;;;4996344;28;20034;-84
2023/09/18 09:14:27;;;;;;;11.05;3.08;;;17.90;99.90;;;;;;5024919;28;20038;-84
2023/09/18 09:16:55;;;;;;;6.38;2.30;;;17.90;99.90;;;;;;5009606;28;20038;-84
2023/09/18 09:19:30;;;;;;;9.68;2.55;;;18.00;99.90;;;;;;5023377;28;20523;-84
2023/09/18 09:21:58;;;;;;;5.35;2.80;;;17.90;99.90;;;;;;4999919;28;20577;-84
2023/09/18 09:24:37;;;;;;;8.57;2.67;;;18.00;99.90;;;;;;5011153;28;20014;-84
2023/09/18 09:27:03;;;;;;;9.82;2.63;;;18.10;99.90;;;;;;5006535;28;20034;-84
2023/09/18 09:29:29;;;;;;;9.00;2.80;;;18.20;99.90;;;;;;5013534;28;20121;-84
2023/09/18 09:31:58;;;;;;;5.55;2.50;;;18.30;99.90;;;;;;5001857;28;20046;-84
2023/09/18 09:34:26;;;;;;;10.90;2.75;;;18.40;99.90;;;;;;5023126;28;20034;-85
2023/09/18 09:36:54;;;;;;;6.78;2.40;;;18.50;99.90;;;;;;5010800;28;20382;-84
2023/09/18 09:40:08;;;;;;;11.43;3.35;;;18.40;99.90;;;;;;5006292;28;20042;-84
2023/09/18 09:42:40;;;;;;;7.65;2.55;;;18.40;99.90;;;;;;4992564;28;20091;-84
2023/09/18 09:45:17;;;;;;;8.25;2.58;;;18.40;99.90;;;;;;5014812;28;20038;-85
2023/09/18 09:47:44;;;;;;;7.63;2.10;;;18.50;99.90;;;;;;5024758;28;20025;-84
2023/09/18 09:50:12;;;;;;;10.25;2.10;;;18.50;99.90;;;;;;5011599;28;20025;-84
2023/09/18 09:52:48;;;;;;;9.45;2.30;;;18.50;99.90;;;;;;5001692;28;20038;-84
2023/09/18 09:55:28;;;;;;;10.95;2.28;;;18.60;99.90;;;;;;5027980;28;20065;-84
2023/09/18 09:58:01;;;;;;;15.82;2.28;;;18.60;99.90;;;;;;5019229;28;20465;-85
2023/09/18 10:00:45;;;;;;;4.32;2.15;;;18.80;99.90;;;;;;5017771;28;20149;-84
2023/09/18 10:03:16;;;;;;;8.70;2.17;;;18.80;99.90;;;;;;5002206;28;20026;-84
2023/09/18 10:05:47;;;;;;;10.73;2.38;;;18.60;99.90;;;;;;4988820;28;20034;-84
2023/09/18 10:08:33;;;;;;;7.97;2.20;;;18.50;99.90;;;;;;5004581;28;20037;-85
2023/09/18 10:11:10;;;;;;;4.70;1.83;;;18.50;99.90;;;;;;5021760;28;20041;-84
2023/09/18 10:13:56;;;;;;;9.60;1.85;;;18.60;99.90;;;;;;5005881;28;20038;-84
2023/09/18 10:16:27;;;;;;;9.55;2.42;;;18.60;99.90;;;;;;5020173;28;20056;-84
2023/09/18 10:19:33;;;;;;;8.07;2.23;;;18.60;99.90;;;;;;5001106;28;20083;-85
2023/09/18 10:22:00;;;;;;;7.97;2.83;;;18.70;99.90;;;;;;5012368;28;20049;-85
2023/09/18 10:24:31;;;;;;;7.72;2.30;;;18.90;99.90;;;;;;4994670;28;20027;-84
2023/09/18 10:27:04;;;;;;;9.23;2.05;;;19.00;99.90;;;;;;5029484;28;20092;-84
2023/09/18 10:29:33;;;;;;;10.48;2.10;;;19.10;99.90;;;;;;5000312;28;20040;-84
2023/09/18 10:31:59;;;;;;;6.95;1.88;;;19.10;99.90;;;;;;5021510;28;20087;-84
2023/09/18 10:34:25;;;;;;;4.88;2.00;;;19.20;99.90;;;;;;5028769;28;20026;-84
2023/09/18 10:36:52;;;;;;;6.93;2.20;;;19.10;99.90;;;;;;5029129;28;20614;-84
2023/09/18 10:39:28;;;;;;;8.77;2.72;;;19.10;99.90;;;;;;5015577;28;20030;-84
2023/09/18 10:42:44;;;;;;;6.00;1.77;;;19.00;99.90;;;;;;5005907;28;20417;-84
2023/09/18 10:45:15;;;;;;;8.27;2.72;;;19.00;99.90;;;;;;5009067;28;20038;-84
2023/09/18 10:47:45;;;;;;;6.55;2.85;;;19.00;99.90;;;;;;4996443;28;20470;-84
2023/09/18 10:50:11;;;;;;;6.93;2.63;;;19.10;99.90;;;;;;5007955;28;20030;-84
2023/09/18 10:52:43;;;;;;;6.57;1.83;;;19.30;99.90;;;;;;5014381;28;20084;-84
2023/09/18 10:55:12;;;;;;;9.50;2.42;;;19.20;99.90;;;;;;4998161;28;20046;-84
2023/09/18 10:57:58;;;;;;;7.65;2.70;;;19.30;99.90;;;;;;4994118;28;20046;-84
2023/09/18 11:00:28;;;;;;;11.30;2.90;;;19.30;99.90;;;;;;4997750;28;20389;-84
2023/09/18 11:03:09;;;;;;;6.97;2.35;;;19.30;99.90;;;;;;5017448;28;20097;-84
2023/09/18 11:05:35;;;;;;;4.85;2.08;;;19.40;99.90;;;;;;5001343;28;20045;-84
2023/09/18 11:08:43;;;;;;;5.45;1.90;;;19.50;99.90;;;;;;5012314;28;20015;-84
2023/09/18 11:11:19;;;;;;;6.10;2.10;;;19.60;99.90;;;;;;5029210;28;20091;-84
2023/09/18 11:13:50;;;;;;;10.43;2.42;;;19.80;99.90;;;;;;4995900;28;20107;-85
2023/09/18 11:16:34;;;;;;;5.90;1.95;;;20.00;99.90;;;;;;4999952;28;20113;-84
2023/09/18 11:19:03;;;;;;;8.50;2.55;;;20.10;99.90;;;;;;5029117;28;20038;-84
2023/09/18 11:21:31;;;;;;;9.68;2.00;;;20.20;99.90;;;;;;5012550;28;20670;-84
2023/09/18 11:24:15;;;;;;;10.80;2.90;;;20.30;99.90;;;;;;5017551;28;20030;-84
2023/09/18 11:26:42;;;;;;;4.38;1.60;;;20.20;99.90;;;;;;5006135;28;20058;-84
2023/09/18 11:29:10;;;;;;;6.43;1.58;;;20.40;99.90;;;;;;5002345;28;20037;-84
2023/09/18 11:31:54;;;;;;;6.88;2.05;;;20.40;99.90;;;;;;5002466;28;20034;-84
2023/09/18 11:34:21;;;;;;;12.55;2.22;;;20.40;99.90;;;;;;5007659;28;20041;-84
2023/09/18 11:36:48;;;;;;;9.82;1.70;;;20.60;99.90;;;;;;5002899;28;20070;-84
2023/09/18 11:39:32;;;;;;;6.20;1.90;;;21.00;99.90;;;;;;5025911;28;20767;-84
2023/09/18 11:42:20;;;;;;;6.38;1.30;;;21.30;99.90;;;;;;5025372;28;20038;-85
2023/09/18 11:44:46;;;;;;;6.90;1.70;;;21.50;99.90;;;;;;5025606;28;20484;-85
2023/09/18 11:47:21;;;;;;;12.32;2.08;;;21.70;99.90;;;;;;4999342;28;20018;-85
2023/09/18 11:49:59;;;;;;;6.95;1.77;;;21.90;99.90;;;;;;5009612;28;20639;-84
2023/09/18 11:52:27;;;;;;;6.70;1.90;;;21.80;99.90;;;;;;4987158;28;20052;-84
2023/09/18 11:54:55;;;;;;;4.80;2.22;;;21.60;99.90;;;;;;5015677;28;20018;-84
2023/09/18 11:57:21;;;;;;;4.90;1.60;;;21.60;99.90;;;;;;5002569;28;20765;-84
2023/09/18 11:59:47;;;;;;;4.13;1.85;;;21.60;99.90;;;;;;5000463;28;20034;-84
2023/09/18 12:02:20;;;;;;;5.00;2.05;;;21.90;99.90;;;;;;5003405;28;20018;-84
2023/09/18 12:04:48;;;;;;;4.18;1.90;;;22.10;99.90;;;;;;5000346;28;20394;-84
2023/09/18 12:07:18;;;;;;;9.23;2.05;;;22.30;99.90;;;;;;5006911;28;20034;-85
2023/09/18 12:09:44;;;;;;;8.70;2.33;;;22.20;99.90;;;;;;4990269;28;20113;-85
2023/09/18 12:12:29;;;;;;;9.27;2.55;;;22.20;99.90;;;;;;5001176;28;20121;-85
2023/09/18 12:14:54;;;;;;;12.35;2.70;;;22.10;99.90;;;;;;5002240;28;20034;-84
2023/09/18 12:17:20;;;;;;;12.80;2.45;;;22.20;99.90;;;;;;5007336;28;20393;-84
2023/09/18 12:19:55;;;;;;;11.05;2.95;;;21.90;99.90;;;;;;5018400;28;20084;-84
2023/09/18 12:22:29;;;;;;;9.90;3.15;;;21.60;99.90;;;;;;5003271;28;20033;-85
2023/09/18 12:25:11;;;;;;;13.43;3.08;;;21.50;99.90;;;;;;5002318;28;20022;-84
2023/09/18 12:27:37;;;;;;;7.32;2.65;;;21.50;99.90;;;;;;5015927;28;20038;-84
2023/09/18 12:30:04;;;;;;;5.65;2.40;;;21.50;99.90;;;;;;5010607;28;20505;-84
2023/09/18 12:32:32;;;;;;;8.75;2.88;;;21.50;99.90;;;;;;4998945;28;20018;-84
2023/09/18 12:34:58;;;;;;;5.82;2.35;;;21.40;99.90;;;;;;5008889;28;20033;-84
2023/09/18 12:37:24;;;;;;;6.25;2.25;;;21.50;99.90;;;;;;4988357;28;20591;-84
2023/09/18 12:39:51;;;;;;;8.45;2.70;;;21.70;99.90;;;;;;5004285;28;20084;-84
2023/09/18 12:42:20;;;;;;;7.15;2.13;;;21.90;99.90;;;;;;5006566;28;20033;-84
2023/09/18 12:44:48;;;;;;;7.68;2.13;;;21.90;99.90;;;;;;5007096;28;20687;-84
2023/09/18 12:47:14;;;;;;;5.93;1.92;;;21.90;99.90;;;;;;5025835;28;20624;-85
2023/09/18 12:49:40;;;;;;;7.88;2.28;;;22.10;99.90;;;;;;5019868;28;20030;-84
2023/09/18 12:52:10;;;;;;;11.00;3.40;;;21.90;99.90;;;;;;5009528;28;20058;-84